Time;durP1;ratioP1;P1;durP2;ratioP2;P2;SDS_P1;SDS_P2;PMS_P1;PMS_P2;Temp;Humidity;BMP_temperature;BMP_pressure;BME280_temperature;BME280_humidity;BME280_pressure;Samples;Min_cycle;Max_cycle;Signal;HPM_P1;HPM_P2
2022/08/14 00:00:28;;;;;;;14.43;8.95;;;21.40;88.80;;;;;;5155606;27;20126;-72
2022/08/14 00:02:54;;;;;;;12.57;8.37;;;21.40;88.90;;;;;;5119809;27;20408;-72
2022/08/14 00:05:21;;;;;;;12.93;8.27;;;21.30;89.10;;;;;;5155277;27;20050;-72
2022/08/14 00:07:48;;;;;;;16.20;8.57;;;21.30;89.30;;;;;;5137574;27;20303;-72
2022/08/14 00:10:17;;;;;;;16.35;8.43;;;21.20;89.40;;;;;;5135714;27;20043;-72
2022/08/14 00:12:47;;;;;;;17.08;8.73;;;21.20;89.80;;;;;;5155803;27;20394;-73
2022/08/14 00:15:24;;;;;;;15.50;9.23;;;21.20;90.00;;;;;;5136471;27;20046;-72
2022/08/14 00:17:50;;;;;;;;;;;21.10;90.00;;;;;;5155094;27;20099;-72
2022/08/14 00:20:17;;;;;;;16.50;8.85;;;21.10;90.00;;;;;;5155296;27;20020;-70
2022/08/14 00:22:43;;;;;;;14.02;9.13;;;21.10;90.00;;;;;;5156920;27;20047;-71
2022/08/14 00:25:09;;;;;;;11.90;8.60;;;21.10;90.10;;;;;;5138557;27;20498;-70
2022/08/14 00:27:36;;;;;;;14.20;9.43;;;21.10;90.30;;;;;;5138619;27;20047;-71
2022/08/14 00:30:04;;;;;;;15.32;8.80;;;21.00;90.40;;;;;;5157630;27;20053;-71
2022/08/14 00:32:30;;;;;;;11.77;8.40;;;21.00;90.60;;;;;;5122293;27;20404;-70
2022/08/14 00:35:00;;;;;;;13.17;8.67;;;21.00;90.70;;;;;;5121474;27;20060;-70
2022/08/14 00:37:29;;;;;;;13.70;8.95;;;20.90;90.80;;;;;;5139327;27;20154;-71
2022/08/14 00:39:55;;;;;;;14.82;9.30;;;20.90;91.00;;;;;;5121249;27;20039;-71
2022/08/14 00:42:22;;;;;;;11.93;8.60;;;20.80;91.00;;;;;;5138293;27;20066;-70
2022/08/14 00:44:48;;;;;;;14.18;8.77;;;20.80;91.10;;;;;;5138404;27;20051;-71
2022/08/14 00:47:15;;;;;;;16.75;9.27;;;20.80;91.30;;;;;;5121391;27;20078;-70
2022/08/14 00:49:41;;;;;;;13.93;8.77;;;20.80;91.40;;;;;;5138554;27;20091;-72
2022/08/14 00:52:08;;;;;;;15.50;9.02;;;20.70;91.40;;;;;;5138081;27;20462;-71
2022/08/14 00:54:36;;;;;;;12.02;8.75;;;20.70;91.50;;;;;;5138464;27;20137;-71
2022/08/14 00:57:02;;;;;;;15.00;8.52;;;20.70;91.60;;;;;;5138972;27;20355;-71
2022/08/14 00:59:28;;;;;;;13.85;8.88;;;20.70;91.80;;;;;;5157317;27;20473;-70
2022/08/14 01:01:57;;;;;;;13.07;9.27;;;20.70;92.30;;;;;;5103945;27;20164;-71
2022/08/14 01:04:24;;;;;;;14.10;8.45;;;20.70;92.30;;;;;;5137091;27;20041;-70
2022/08/14 01:06:50;;;;;;;14.25;9.45;;;20.70;92.40;;;;;;5138257;27;20056;-69
2022/08/14 01:09:21;;;;;;;13.32;9.10;;;20.60;92.40;;;;;;5138335;27;20054;-71
2022/08/14 01:11:52;;;;;;;11.73;8.77;;;20.60;92.60;;;;;;5121543;27;20057;-72
2022/08/14 01:14:19;;;;;;;13.60;8.95;;;20.60;92.50;;;;;;5138172;27;20150;-69
2022/08/14 01:16:46;;;;;;;15.82;9.00;;;20.50;92.60;;;;;;5156495;27;20049;-71
2022/08/14 01:21:57;;;;;;;14.18;8.85;;;20.50;92.90;;;;;;5156634;27;20394;-69
2022/08/14 01:24:24;;;;;;;14.82;9.00;;;20.50;92.90;;;;;;5137502;27;20038;-72
2022/08/14 01:26:50;;;;;;;;;;;20.50;93.00;;;;;;5138184;27;20051;-70
2022/08/14 01:29:18;;;;;;;13.18;8.57;;;20.50;93.20;;;;;;5120299;27;20323;-70
2022/08/14 01:31:51;;;;;;;14.88;9.02;;;20.50;92.90;;;;;;5156101;27;20504;-72
2022/08/14 01:34:24;;;;;;;14.00;9.20;;;20.50;93.10;;;;;;5138130;27;20047;-70
2022/08/14 01:36:52;;;;;;;14.55;8.48;;;20.50;93.40;;;;;;5120707;27;20118;-71
2022/08/14 01:39:19;;;;;;;15.80;8.48;;;20.50;93.40;;;;;;5137705;27;20051;-70
2022/08/14 01:41:55;;;;;;;15.65;8.70;;;20.40;93.50;;;;;;5138001;27;20043;-72
2022/08/14 01:44:25;;;;;;;14.45;8.88;;;20.40;93.70;;;;;;5134162;27;20130;-72
2022/08/14 01:46:53;;;;;;;14.80;8.98;;;20.40;93.70;;;;;;5134055;27;20054;-72
2022/08/14 01:49:19;;;;;;;13.30;8.63;;;20.40;93.80;;;;;;5133505;27;20082;-71
2022/08/14 01:51:45;;;;;;;;;;;20.40;94.00;;;;;;5135126;27;20043;-71
2022/08/14 01:54:14;;;;;;;13.50;8.77;;;20.30;94.40;;;;;;5134703;27;19971;-71
2022/08/14 01:56:41;;;;;;;14.23;8.63;;;20.30;95.60;;;;;;5133412;27;20057;-70
2022/08/14 01:59:16;;;;;;;12.77;8.90;;;20.20;94.50;;;;;;5134652;27;20051;-71
2022/08/14 02:01:43;;;;;;;13.98;9.35;;;20.20;94.90;;;;;;5134572;27;20043;-72
2022/08/14 02:04:09;;;;;;;15.57;8.60;;;20.20;94.70;;;;;;5133226;27;20050;-70
2022/08/14 02:06:36;;;;;;;13.10;8.87;;;20.10;94.80;;;;;;5133241;27;20423;-71
2022/08/14 02:09:06;;;;;;;13.95;8.32;;;20.10;95.10;;;;;;5133517;27;20115;-70
2022/08/14 02:11:34;;;;;;;14.60;8.73;;;20.10;95.40;;;;;;5133330;27;20054;-71
2022/08/14 02:14:09;;;;;;;14.73;8.90;;;20.00;95.30;;;;;;5133147;27;20073;-71
2022/08/14 02:16:40;;;;;;;12.05;8.80;;;20.00;96.10;;;;;;5134795;27;20045;-73
2022/08/14 02:19:10;;;;;;;16.02;8.80;;;20.00;95.90;;;;;;5134840;27;20092;-70
2022/08/14 02:21:37;;;;;;;14.25;9.18;;;20.00;95.80;;;;;;5134215;27;20046;-71
2022/08/14 02:24:04;;;;;;;14.18;8.40;;;20.00;95.70;;;;;;5115972;27;20047;-71
2022/08/14 02:26:32;;;;;;;13.63;8.95;;;20.00;95.90;;;;;;5134058;27;20046;-71
2022/08/14 02:29:10;;;;;;;14.27;9.38;;;19.90;95.90;;;;;;5115897;27;20493;-71
2022/08/14 02:31:42;;;;;;;15.05;8.82;;;19.90;96.30;;;;;;5133758;27;20544;-70
2022/08/14 02:34:27;;;;;;;13.30;9.02;;;19.90;96.30;;;;;;5134216;27;20112;-70
2022/08/14 02:36:57;;;;;;;12.18;8.45;;;20.00;96.80;;;;;;5133055;27;20115;-71
2022/08/14 02:39:24;;;;;;;15.18;9.77;;;19.90;98.10;;;;;;5133978;27;20058;-70
2022/08/14 02:41:51;;;;;;;15.23;9.20;;;19.90;96.80;;;;;;5115470;27;20055;-70
2022/08/14 02:44:19;;;;;;;14.23;9.18;;;19.90;96.80;;;;;;5132120;27;20087;-71
2022/08/14 02:46:47;;;;;;;14.85;9.65;;;19.90;97.20;;;;;;5133135;27;20406;-72
2022/08/14 02:49:12;;;;;;;15.33;9.40;;;19.90;96.90;;;;;;5132580;27;20194;-70
2022/08/14 02:51:38;;;;;;;13.17;8.83;;;19.80;97.00;;;;;;5132820;27;20276;-69
2022/08/14 02:54:06;;;;;;;14.80;9.70;;;19.80;97.30;;;;;;5132573;27;20364;-71
2022/08/14 02:56:37;;;;;;;15.85;9.35;;;19.80;99.40;;;;;;5133022;27;20061;-70
2022/08/14 02:59:05;;;;;;;14.57;9.55;;;19.70;98.80;;;;;;5132851;27;20523;-70
2022/08/14 03:01:32;;;;;;;14.40;9.52;;;19.70;98.70;;;;;;5133546;27;20050;-69
2022/08/14 03:03:58;;;;;;;;;;;19.60;98.50;;;;;;5132926;27;20039;-70
2022/08/14 03:06:24;;;;;;;11.80;8.68;;;19.60;98.80;;;;;;5133585;27;19926;-71
2022/08/14 03:08:51;;;;;;;15.30;9.48;;;19.60;98.40;;;;;;5132472;28;20050;-70
2022/08/14 03:11:18;;;;;;;14.63;9.63;;;19.50;98.30;;;;;;5133334;27;20071;-70
2022/08/14 03:13:48;;;;;;;15.57;9.77;;;19.50;99.70;;;;;;5133157;27;20046;-70
2022/08/14 03:16:18;;;;;;;13.13;8.75;;;19.50;99.50;;;;;;5132694;28;20534;-71
2022/08/14 03:18:47;;;;;;;14.45;9.40;;;19.50;99.60;;;;;;5132179;28;20108;-71
2022/08/14 03:21:17;;;;;;;20.52;9.57;;;19.50;99.50;;;;;;5133947;27;20043;-71
2022/08/14 03:23:48;;;;;;;15.15;9.77;;;19.50;99.60;;;;;;5133885;27;20440;-70
2022/08/14 03:26:16;;;;;;;14.43;9.82;;;19.40;99.60;;;;;;5132241;28;20047;-70
2022/08/14 03:28:47;;;;;;;16.98;9.85;;;19.40;99.60;;;;;;5136688;27;20053;-71
2022/08/14 03:31:14;;;;;;;15.48;9.80;;;19.40;99.70;;;;;;5138190;27;20051;-72
2022/08/14 03:33:41;;;;;;;14.35;10.13;;;19.40;99.80;;;;;;5137513;27;20096;-70
2022/08/14 03:36:14;;;;;;;16.67;10.18;;;19.40;99.90;;;;;;5102028;27;20417;-72
2022/08/14 03:38:44;;;;;;;17.48;10.18;;;19.40;99.90;;;;;;5137113;27;20051;-71
2022/08/14 03:41:16;;;;;;;16.35;10.00;;;19.40;99.90;;;;;;5137267;27;20062;-69
2022/08/14 03:43:46;;;;;;;14.90;9.88;;;19.30;99.90;;;;;;5149927;27;20119;-72
2022/08/14 03:46:13;;;;;;;17.00;9.93;;;19.30;99.90;;;;;;5139700;27;20047;-70
2022/08/14 03:48:43;;;;;;;14.70;9.68;;;19.30;99.90;;;;;;5139593;27;20053;-70
2022/08/14 03:51:12;;;;;;;15.35;10.20;;;19.20;99.90;;;;;;5139697;27;20110;-70
2022/08/14 03:53:40;;;;;;;16.05;10.65;;;19.20;99.90;;;;;;5157836;27;20117;-73
2022/08/14 03:56:13;;;;;;;17.05;9.98;;;19.20;99.90;;;;;;5157711;27;20130;-70
2022/08/14 03:58:48;;;;;;;15.20;10.18;;;19.20;99.90;;;;;;5157682;27;20061;-71
2022/08/14 04:01:21;;;;;;;18.23;11.07;;;19.20;99.90;;;;;;5157732;27;20043;-71
2022/08/14 04:03:47;;;;;;;15.77;10.95;;;19.10;99.90;;;;;;5157579;27;20167;-71
2022/08/14 04:06:13;;;;;;;15.25;10.38;;;19.10;99.90;;;;;;5138937;27;20053;-71
2022/08/14 04:08:40;;;;;;;16.35;11.30;;;19.10;99.90;;;;;;5139553;27;20414;-71
2022/08/14 04:11:07;;;;;;;14.18;10.43;;;19.00;99.90;;;;;;5157517;27;20046;-70
2022/08/14 04:13:40;;;;;;;16.80;10.60;;;19.00;99.90;;;;;;5157383;27;20057;-70
2022/08/14 04:16:15;;;;;;;16.35;10.73;;;18.90;99.90;;;;;;5139275;27;20054;-69
2022/08/14 04:18:43;;;;;;;18.73;11.30;;;18.90;99.90;;;;;;5157918;27;20045;-70
2022/08/14 04:21:10;;;;;;;17.83;10.90;;;18.90;99.90;;;;;;5138868;27;20199;-71
2022/08/14 04:23:37;;;;;;;15.43;10.77;;;18.90;99.90;;;;;;5157313;27;20083;-71
2022/08/14 04:26:07;;;;;;;16.40;10.57;;;18.80;99.90;;;;;;5139439;27;20052;-71
2022/08/14 04:28:35;;;;;;;17.75;10.93;;;18.80;99.90;;;;;;5138508;27;20069;-71
2022/08/14 04:31:01;;;;;;;16.25;10.10;;;18.80;99.90;;;;;;5157142;27;20042;-71
2022/08/14 04:33:27;;;;;;;17.27;11.57;;;18.80;99.90;;;;;;5139288;27;20046;-70
2022/08/14 04:35:54;;;;;;;15.02;10.68;;;18.90;99.90;;;;;;5157730;27;20111;-69
2022/08/14 04:43:49;;;;;;;17.08;11.65;;;18.90;99.90;;;;;;5156275;27;20050;-70
2022/08/14 04:46:19;;;;;;;17.10;11.60;;;18.90;99.90;;;;;;5138776;27;20076;-70
2022/08/14 04:48:45;;;;;;;20.02;11.27;;;18.90;99.90;;;;;;5156793;27;20120;-70
2022/08/14 04:51:13;;;;;;;17.03;10.80;;;18.90;99.90;;;;;;5138180;27;20042;-71
2022/08/14 04:53:42;;;;;;;16.80;11.27;;;18.90;99.90;;;;;;5121957;27;20046;-71
2022/08/14 04:56:14;;;;;;;18.55;11.80;;;18.90;99.90;;;;;;5156616;27;20042;-69
2022/08/14 04:58:43;;;;;;;16.63;10.82;;;19.00;99.90;;;;;;5138694;27;20076;-72
2022/08/14 05:01:09;;;;;;;20.98;11.38;;;19.10;99.90;;;;;;5156592;27;20046;-73
2022/08/14 05:03:37;;;;;;;16.90;10.55;;;19.10;99.90;;;;;;5156473;27;20039;-71
2022/08/14 05:06:05;;;;;;;16.15;10.70;;;19.10;99.90;;;;;;5138320;27;20054;-71
2022/08/14 05:08:32;;;;;;;18.33;11.40;;;19.30;99.90;;;;;;5138098;27;20043;-70
2022/08/14 05:11:01;;;;;;;17.13;11.50;;;19.30;99.90;;;;;;5120942;27;20038;-69
2022/08/14 05:13:29;;;;;;;18.92;11.52;;;19.40;99.90;;;;;;5137861;27;20122;-70
2022/08/14 05:15:57;;;;;;;21.63;10.90;;;19.40;99.90;;;;;;5156128;27;20038;-70
2022/08/14 05:18:25;;;;;;;17.90;11.38;;;19.50;99.90;;;;;;5120933;27;20046;-70
2022/08/14 05:20:54;;;;;;;17.15;11.05;;;19.50;99.90;;;;;;5137715;27;20086;-70
2022/08/14 05:23:27;;;;;;;17.75;10.73;;;19.60;99.90;;;;;;5138516;27;20053;-70
2022/08/14 05:26:02;;;;;;;16.83;11.57;;;19.60;99.90;;;;;;5156606;27;20095;-69
2022/08/14 05:28:33;;;;;;;18.98;11.57;;;19.60;99.90;;;;;;5156075;27;20046;-70
2022/08/14 05:31:01;;;;;;;17.30;11.50;;;19.70;99.90;;;;;;5137814;27;20107;-70
2022/08/14 05:33:29;;;;;;;13.77;10.65;;;19.80;99.90;;;;;;5120516;27;20160;-72
2022/08/14 05:36:00;;;;;;;16.05;11.30;;;19.80;99.90;;;;;;5137685;27;20127;-71
2022/08/14 05:38:32;;;;;;;15.57;11.45;;;19.80;99.90;;;;;;5138257;27;20048;-71
2022/08/14 05:41:03;;;;;;;15.45;11.00;;;19.80;99.90;;;;;;5137997;27;20042;-71
2022/08/14 05:43:32;;;;;;;16.70;11.45;;;19.90;99.90;;;;;;5137464;27;20431;-70
2022/08/14 05:46:00;;;;;;;19.27;11.52;;;20.00;99.90;;;;;;5137473;27;20038;-73
2022/08/14 05:48:26;;;;;;;16.50;11.02;;;20.10;99.90;;;;;;5137433;27;20126;-71
2022/08/14 05:50:53;;;;;;;17.85;12.07;;;20.10;99.90;;;;;;5155210;27;20109;-72
2022/08/14 05:53:24;;;;;;;16.73;11.35;;;20.10;99.90;;;;;;5155663;27;20050;-72
2022/08/14 05:55:50;;;;;;;16.83;11.70;;;20.20;99.90;;;;;;5136414;27;20042;-72
2022/08/14 05:58:16;;;;;;;19.17;11.70;;;20.20;99.90;;;;;;5120338;27;20363;-69
2022/08/14 06:00:43;;;;;;;16.93;11.20;;;20.30;99.90;;;;;;5155338;27;20068;-71
2022/08/14 06:03:13;;;;;;;17.05;12.07;;;20.30;99.90;;;;;;5155214;27;20053;-71
2022/08/14 06:05:39;;;;;;;17.83;12.15;;;20.40;99.90;;;;;;5155408;27;20051;-76
2022/08/14 06:08:14;;;;;;;18.13;11.18;;;20.40;99.90;;;;;;5136768;27;20042;-71
2022/08/14 06:10:40;;;;;;;16.85;11.52;;;20.50;99.90;;;;;;5103358;27;20042;-78
2022/08/14 06:13:06;;;;;;;19.17;11.67;;;20.50;99.90;;;;;;5136580;27;20090;-71
2022/08/14 06:15:32;;;;;;;14.70;11.00;;;20.60;99.90;;;;;;5136918;27;20046;-70
2022/08/14 06:17:58;;;;;;;17.23;11.10;;;20.60;99.90;;;;;;5155146;27;20046;-71
2022/08/14 06:20:24;;;;;;;16.23;11.50;;;20.70;99.90;;;;;;5136385;27;20450;-71
2022/08/14 06:22:50;;;;;;;18.45;11.20;;;20.70;99.90;;;;;;5119622;27;20374;-71
2022/08/14 06:25:16;;;;;;;16.40;11.53;;;20.80;99.90;;;;;;5136547;27;20090;-71
2022/08/14 06:27:46;;;;;;;18.08;11.40;;;20.90;99.90;;;;;;5155037;27;20062;-76
2022/08/14 06:30:18;;;;;;;15.02;10.82;;;20.90;99.90;;;;;;5136763;27;20335;-72
2022/08/14 06:32:45;;;;;;;20.38;11.02;;;21.00;99.90;;;;;;5136424;27;20050;-77
2022/08/14 06:35:13;;;;;;;16.48;10.90;;;21.10;99.90;;;;;;5119582;27;20139;-72
2022/08/14 06:37:50;;;;;;;18.15;11.27;;;21.10;99.90;;;;;;5119526;27;20190;-70
2022/08/14 06:40:22;;;;;;;16.77;11.23;;;21.30;99.90;;;;;;5154879;27;20034;-70
2022/08/14 06:42:48;;;;;;;14.88;10.70;;;21.30;99.90;;;;;;5135925;27;20512;-71
2022/08/14 06:45:15;;;;;;;19.25;11.25;;;21.40;99.90;;;;;;5154561;27;20050;-71
2022/08/14 06:47:43;;;;;;;15.82;11.20;;;21.50;99.90;;;;;;5119228;27;20047;-71
2022/08/14 06:50:14;;;;;;;15.20;10.93;;;21.60;99.90;;;;;;5136747;27;20458;-73
2022/08/14 06:52:41;;;;;;;16.83;10.27;;;21.60;99.90;;;;;;5136375;27;20055;-71
2022/08/14 06:55:09;;;;;;;15.43;10.57;;;21.70;99.90;;;;;;5154358;27;20042;-73
2022/08/14 06:57:47;;;;;;;16.27;10.27;;;21.70;99.90;;;;;;5135893;27;20093;-71
2022/08/14 07:00:24;;;;;;;15.60;11.15;;;21.80;99.90;;;;;;5154937;27;20080;-71
2022/08/14 07:05:46;;;;;;;13.77;10.93;;;22.00;99.90;;;;;;5154447;27;20050;-71
2022/08/14 07:08:18;;;;;;;14.88;10.57;;;22.10;99.90;;;;;;5119691;27;20107;-70
2022/08/14 07:10:48;;;;;;;14.95;10.60;;;22.30;99.90;;;;;;5135775;27;20104;-71
2022/08/14 07:13:16;;;;;;;12.55;9.82;;;22.40;99.90;;;;;;5119009;27;20054;-69
2022/08/14 07:15:44;;;;;;;16.38;9.93;;;22.50;99.90;;;;;;5154924;27;20385;-72
2022/08/14 07:18:11;;;;;;;14.23;9.70;;;22.60;99.90;;;;;;5135906;27;20461;-71
2022/08/14 07:20:37;;;;;;;;;;;22.70;99.90;;;;;;5103152;27;20078;-70
2022/08/14 07:23:05;;;;;;;15.75;9.13;;;22.80;99.90;;;;;;5118860;27;20315;-72
2022/08/14 07:25:31;;;;;;;13.13;9.90;;;22.90;99.90;;;;;;5119098;27;20047;-70
2022/08/14 07:27:57;;;;;;;12.52;9.43;;;23.00;99.90;;;;;;5154248;27;20407;-71
2022/08/14 07:30:23;;;;;;;12.90;9.57;;;23.10;99.90;;;;;;5154193;27;20047;-74
2022/08/14 07:32:49;;;;;;;12.85;9.70;;;23.20;99.90;;;;;;5135840;27;20284;-69
2022/08/14 07:35:15;;;;;;;17.58;10.32;;;23.30;99.90;;;;;;5153890;27;20114;-71
2022/08/14 07:37:41;;;;;;;14.18;9.30;;;23.40;99.90;;;;;;5154141;27;20051;-70
2022/08/14 07:40:08;;;;;;;13.73;9.17;;;23.50;99.90;;;;;;5119118;27;20054;-71
2022/08/14 07:42:33;;;;;;;17.50;9.15;;;23.60;99.90;;;;;;5153759;27;20045;-72
2022/08/14 07:44:59;;;;;;;16.73;9.63;;;23.60;99.90;;;;;;5118738;27;20061;-73
2022/08/14 07:47:26;;;;;;;12.85;9.20;;;23.80;99.90;;;;;;5136077;27;20046;-71
2022/08/14 07:50:06;;;;;;;13.18;9.32;;;23.90;99.90;;;;;;5154421;27;20050;-69
2022/08/14 07:52:32;;;;;;;12.27;8.70;;;24.00;99.80;;;;;;5135543;27;20038;-74
2022/08/14 07:54:59;;;;;;;13.75;8.73;;;24.10;99.40;;;;;;5118595;27;20479;-70
2022/08/14 07:57:27;;;;;;;12.77;8.82;;;24.20;99.50;;;;;;5135202;27;20133;-71
2022/08/14 07:59:53;;;;;;;13.90;9.02;;;24.30;99.30;;;;;;5135491;27;20043;-73
2022/08/14 08:02:20;;;;;;;12.25;8.55;;;24.40;99.00;;;;;;5153768;27;20045;-73
2022/08/14 08:04:49;;;;;;;12.45;9.25;;;24.50;98.80;;;;;;5101359;27;20087;-71
2022/08/14 08:07:15;;;;;;;15.40;8.80;;;24.60;99.90;;;;;;5154370;27;20410;-72
2022/08/14 08:09:47;;;;;;;12.60;8.40;;;24.60;98.80;;;;;;5153887;27;20121;-73
2022/08/14 08:12:15;;;;;;;11.77;8.60;;;;;;;;;;5134959;27;20525;-72
2022/08/14 08:14:42;;;;;;;11.80;8.20;;;24.90;97.90;;;;;;5138586;27;20086;-72
2022/08/14 08:17:09;;;;;;;14.18;8.27;;;25.00;97.90;;;;;;5157908;27;20115;-74
2022/08/14 08:19:36;;;;;;;;;;;25.10;97.40;;;;;;5122646;27;20042;-71
2022/08/14 08:22:02;;;;;;;10.80;7.75;;;25.10;97.40;;;;;;5157414;27;19919;-71
2022/08/14 08:24:28;;;;;;;13.82;7.97;;;25.20;97.30;;;;;;5157274;27;20046;-73
2022/08/14 08:26:54;;;;;;;11.52;8.00;;;25.40;97.00;;;;;;5157321;27;20053;-75
2022/08/14 08:29:22;;;;;;;10.87;8.60;;;25.40;96.70;;;;;;5122501;27;20411;-72
2022/08/14 08:31:51;;;;;;;11.60;7.90;;;25.50;96.60;;;;;;5121443;27;20130;-73
2022/08/14 08:34:18;;;;;;;11.20;7.57;;;25.50;96.40;;;;;;5157402;27;20428;-72
2022/08/14 08:36:44;;;;;;;13.40;7.68;;;25.50;96.20;;;;;;5156938;27;20035;-72
2022/08/14 08:39:11;;;;;;;10.95;7.90;;;25.60;96.20;;;;;;5156968;27;20053;-76
2022/08/14 08:41:44;;;;;;;12.27;8.10;;;25.70;96.00;;;;;;5138891;27;20050;-73
2022/08/14 08:44:10;;;;;;;11.55;8.02;;;25.80;95.70;;;;;;5156861;27;20130;-71
2022/08/14 08:46:36;;;;;;;14.65;8.48;;;25.80;95.40;;;;;;5157055;27;20104;-73
2022/08/14 08:49:02;;;;;;;12.23;8.75;;;25.90;95.40;;;;;;5121502;27;20047;-77
2022/08/14 08:51:34;;;;;;;11.70;8.25;;;25.90;95.60;;;;;;5121424;27;20086;-71
2022/08/14 08:54:13;;;;;;;13.27;7.40;;;26.00;95.30;;;;;;5157202;27;20042;-77
2022/08/14 08:56:44;;;;;;;11.85;7.63;;;26.10;95.00;;;;;;5157237;27;20082;-71
2022/08/14 08:59:31;;;;;;;10.95;7.85;;;26.20;94.80;;;;;;5138243;27;20125;-72
2022/08/14 09:01:58;;;;;;;10.05;7.60;;;26.30;94.60;;;;;;5138585;27;20042;-72
2022/08/14 09:04:25;;;;;;;9.95;7.22;;;26.40;93.80;;;;;;5138428;27;20043;-72
2022/08/14 09:06:51;;;;;;;11.48;7.55;;;26.40;93.90;;;;;;5121943;27;20102;-72
2022/08/14 09:09:22;;;;;;;10.45;7.80;;;26.50;93.00;;;;;;5137934;27;20042;-73
2022/08/14 09:11:48;;;;;;;9.90;7.35;;;26.50;93.60;;;;;;5157326;27;20069;-71
2022/08/14 09:14:14;;;;;;;10.63;7.45;;;26.50;93.30;;;;;;5120958;27;20042;-72
2022/08/14 09:16:41;;;;;;;10.85;7.60;;;26.60;93.40;;;;;;5137966;27;20058;-74
2022/08/14 09:19:07;;;;;;;12.00;7.13;;;26.60;93.10;;;;;;5156094;27;20557;-71
2022/08/14 09:21:33;;;;;;;10.05;6.70;;;26.70;92.80;;;;;;5156476;27;20046;-73
2022/08/14 09:23:59;;;;;;;;;;;26.70;92.70;;;;;;5138241;27;20562;-73
2022/08/14 09:26:26;;;;;;;10.30;7.35;;;26.80;92.10;;;;;;5137146;27;19915;-74
2022/08/14 09:28:51;;;;;;;11.00;6.93;;;26.90;92.20;;;;;;5138330;27;20075;-73
2022/08/14 09:31:19;;;;;;;12.23;7.28;;;27.00;91.80;;;;;;5137952;27;20046;-73
2022/08/14 09:33:57;;;;;;;10.45;7.63;;;27.00;91.60;;;;;;5137836;27;20078;-71
2022/08/14 09:36:25;;;;;;;13.68;7.53;;;27.00;91.60;;;;;;5138140;27;20051;-73
2022/08/14 09:38:57;;;;;;;12.70;7.85;;;27.00;91.80;;;;;;5120565;27;20047;-75
2022/08/14 09:41:36;;;;;;;9.30;7.20;;;27.10;91.60;;;;;;5121172;27;20085;-71
2022/08/14 09:44:18;;;;;;;10.65;7.40;;;27.20;91.00;;;;;;5155992;27;20042;-73
2022/08/14 09:46:56;;;;;;;9.00;7.10;;;27.30;90.90;;;;;;5156060;27;20099;-71
2022/08/14 09:49:36;;;;;;;10.52;7.72;;;27.40;90.50;;;;;;5155998;27;20043;-73
2022/08/14 09:52:09;;;;;;;13.88;7.30;;;27.30;90.90;;;;;;5137669;27;20058;-71
2022/08/14 09:54:38;;;;;;;11.95;7.40;;;27.40;91.10;;;;;;5156125;27;20042;-73
2022/08/14 09:57:05;;;;;;;11.10;7.25;;;27.60;91.00;;;;;;5137755;27;20493;-72
2022/08/14 09:59:46;;;;;;;12.18;7.63;;;27.60;90.50;;;;;;5156276;27;20095;-73
2022/08/14 10:02:26;;;;;;;13.98;7.55;;;27.70;90.40;;;;;;5137148;27;20043;-72
2022/08/14 10:05:09;;;;;;;10.90;7.07;;;27.80;90.30;;;;;;5156889;27;20107;-71
2022/08/14 10:07:52;;;;;;;10.18;7.32;;;27.80;89.80;;;;;;5120044;27;20080;-73
2022/08/14 10:10:38;;;;;;;11.05;7.13;;;27.70;89.00;;;;;;5137136;27;20047;-73
2022/08/14 10:13:07;;;;;;;9.48;6.93;;;27.70;87.70;;;;;;5119934;27;20048;-72
2022/08/14 10:15:44;;;;;;;9.02;7.05;;;27.70;89.20;;;;;;5155613;27;20035;-71
2022/08/14 10:18:12;;;;;;;11.30;7.10;;;27.80;88.50;;;;;;5156163;27;20045;-72
2022/08/14 10:20:43;;;;;;;11.15;7.43;;;27.80;87.60;;;;;;5137496;27;20045;-72
2022/08/14 10:23:14;;;;;;;10.90;6.85;;;27.80;88.30;;;;;;5138707;27;20054;-71
2022/08/14 10:25:49;;;;;;;10.45;7.30;;;28.00;87.40;;;;;;5137553;27;20057;-74
2022/08/14 10:28:16;;;;;;;11.30;7.15;;;28.00;86.90;;;;;;5138895;27;20151;-76
2022/08/14 10:30:46;;;;;;;9.85;6.70;;;28.00;87.10;;;;;;5121791;27;20054;-73
2022/08/14 10:33:30;;;;;;;9.60;7.03;;;28.10;86.70;;;;;;5122484;27;20165;-76
2022/08/14 10:35:59;;;;;;;10.30;7.20;;;28.10;86.30;;;;;;5140266;27;20047;-72
2022/08/14 10:38:26;;;;;;;9.52;6.78;;;28.10;86.50;;;;;;5139457;27;20126;-73
2022/08/14 10:40:52;;;;;;;9.40;6.22;;;28.20;86.20;;;;;;5140795;27;20067;-72
2022/08/14 10:43:21;;;;;;;9.88;6.20;;;28.30;85.00;;;;;;5124823;27;20062;-71
2022/08/14 10:45:56;;;;;;;9.73;6.30;;;28.20;82.70;;;;;;5160936;27;20046;-74
2022/08/14 10:48:23;;;;;;;13.10;7.63;;;28.30;83.10;;;;;;5163623;27;20049;-72
2022/08/14 10:50:50;;;;;;;11.05;6.95;;;28.30;84.10;;;;;;5162501;27;20061;-72
2022/08/14 10:53:28;;;;;;;9.95;6.22;;;28.40;83.60;;;;;;5145230;27;20103;-77
2022/08/14 10:55:59;;;;;;;11.27;6.65;;;28.50;82.90;;;;;;5161866;27;20359;-74
2022/08/14 10:58:29;;;;;;;8.32;6.90;;;28.40;82.10;;;;;;5126085;27;20058;-73
2022/08/14 11:01:00;;;;;;;9.90;7.25;;;28.40;83.30;;;;;;5144069;27;20051;-73
2022/08/14 11:03:37;;;;;;;9.70;6.78;;;28.50;83.40;;;;;;5162125;27;20047;-73
2022/08/14 11:06:21;;;;;;;10.10;6.07;;;28.60;83.40;;;;;;5127830;27;20045;-73
2022/08/14 11:08:48;;;;;;;8.75;6.28;;;28.60;82.30;;;;;;5142793;27;20042;-73
2022/08/14 11:11:16;;;;;;;10.65;6.25;;;28.70;81.10;;;;;;5159519;27;20049;-74
2022/08/14 11:13:42;;;;;;;13.48;6.50;;;28.70;80.30;;;;;;5145284;27;20042;-73
2022/08/14 11:16:09;;;;;;;;;;;28.80;80.40;;;;;;5127933;27;20074;-73
2022/08/14 11:18:35;;;;;;;11.85;6.70;;;28.70;79.10;;;;;;5143786;27;19919;-73
2022/08/14 11:21:05;;;;;;;10.82;6.68;;;28.80;80.30;;;;;;5144131;27;20209;-72
2022/08/14 11:23:40;;;;;;;10.73;7.30;;;28.80;79.60;;;;;;5125237;27;20050;-74
2022/08/14 11:26:07;;;;;;;9.20;6.90;;;28.90;80.00;;;;;;5162068;27;20099;-74
2022/08/14 11:28:40;;;;;;;8.35;6.60;;;29.00;80.00;;;;;;5160452;27;20050;-73
2022/08/14 11:31:09;;;;;;;10.60;7.18;;;29.00;80.10;;;;;;5140936;27;20075;-73
2022/08/14 11:33:36;;;;;;;9.80;7.38;;;28.90;80.10;;;;;;5141129;27;20043;-72
2022/08/14 11:36:05;;;;;;;12.93;7.13;;;28.80;79.80;;;;;;5123093;27;20103;-75
2022/08/14 11:38:42;;;;;;;11.70;7.30;;;28.80;80.60;;;;;;5157824;27;20034;-74
2022/08/14 11:41:09;;;;;;;14.40;6.78;;;28.90;80.30;;;;;;5139982;27;20046;-72
2022/08/14 11:43:43;;;;;;;9.40;7.15;;;29.10;79.50;;;;;;5119423;28;20509;-73
2022/08/14 11:46:12;;;;;;;9.98;7.13;;;29.20;79.30;;;;;;5136438;28;20047;-72
2022/08/14 11:48:53;;;;;;;10.23;7.35;;;29.10;78.00;;;;;;5137721;27;20051;-72
2022/08/14 11:51:26;;;;;;;9.18;7.03;;;29.20;77.10;;;;;;5139622;27;20156;-75
2022/08/14 11:53:54;;;;;;;14.02;8.00;;;29.20;78.30;;;;;;5143737;27;20092;-73
2022/08/14 11:56:20;;;;;;;13.27;7.85;;;29.30;78.40;;;;;;5141965;27;20139;-72
2022/08/14 11:58:54;;;;;;;10.57;8.20;;;29.30;78.60;;;;;;5141853;27;20043;-73
2022/08/14 12:01:27;;;;;;;11.45;7.93;;;29.50;78.60;;;;;;5125342;27;20051;-74
2022/08/14 12:03:57;;;;;;;9.35;7.20;;;29.50;76.50;;;;;;5140958;27;20050;-71
2022/08/14 12:06:25;;;;;;;9.35;7.25;;;29.50;76.80;;;;;;5127019;27;20078;-81
2022/08/14 12:08:52;;;;;;;10.55;7.38;;;29.60;76.80;;;;;;5143730;27;20043;-73
2022/08/14 12:11:19;;;;;;;11.90;7.82;;;29.70;76.30;;;;;;5142801;27;20059;-75
2022/08/14 12:13:45;;;;;;;10.63;7.53;;;29.80;76.20;;;;;;5143951;27;20339;-73
2022/08/14 12:16:15;;;;;;;13.73;7.45;;;30.00;75.00;;;;;;5143219;27;20482;-74
2022/08/14 12:18:47;;;;;;;11.88;7.93;;;30.10;74.70;;;;;;5126109;27;20054;-74
2022/08/14 12:21:17;;;;;;;12.25;7.75;;;30.00;74.90;;;;;;5125170;27;20079;-74
2022/08/14 12:23:44;;;;;;;10.00;7.57;;;30.10;74.90;;;;;;5144488;27;20082;-73
2022/08/14 12:26:19;;;;;;;10.27;7.78;;;30.20;74.80;;;;;;5125647;27;20093;-73
2022/08/14 12:29:04;;;;;;;10.98;8.02;;;30.20;73.30;;;;;;5108025;27;20236;-73
2022/08/14 12:31:29;;;;;;;10.43;7.73;;;30.00;74.40;;;;;;5106694;27;20043;-74
2022/08/14 12:34:02;;;;;;;10.82;7.38;;;30.20;74.40;;;;;;5142346;27;20043;-73
2022/08/14 12:36:29;;;;;;;9.82;7.47;;;30.30;73.20;;;;;;5141057;27;20078;-75
2022/08/14 12:38:56;;;;;;;10.23;7.00;;;30.40;72.80;;;;;;5139835;27;20509;-74
2022/08/14 12:41:25;;;;;;;9.43;7.40;;;30.40;72.80;;;;;;5142970;27;20043;-73
2022/08/14 12:43:55;;;;;;;9.13;7.40;;;30.20;72.10;;;;;;5144325;27;20113;-73
2022/08/14 12:46:26;;;;;;;9.20;7.38;;;30.00;72.60;;;;;;5141715;27;20067;-76
2022/08/14 12:48:52;;;;;;;11.52;7.50;;;30.00;73.00;;;;;;5141796;27;20490;-72
2022/08/14 12:51:20;;;;;;;10.75;7.55;;;30.10;72.60;;;;;;5145283;27;20103;-73
2022/08/14 12:53:47;;;;;;;10.38;7.47;;;30.20;72.50;;;;;;5141370;27;20055;-75
2022/08/14 12:56:17;;;;;;;12.70;7.68;;;30.40;72.50;;;;;;5141426;27;20078;-74
2022/08/14 12:58:53;;;;;;;10.60;7.70;;;30.50;72.20;;;;;;5124669;27;20047;-74